Time;durP1;ratioP1;P1;durP2;ratioP2;P2;SDS_P1;SDS_P2;PMS_P1;PMS_P2;Temp;Humidity;BMP_temperature;BMP_pressure;BME280_temperature;BME280_humidity;BME280_pressure;Samples;Min_cycle;Max_cycle;Signal;HPM_P1;HPM_P2
2024/01/07 00:02:05;;;;;;;50.40;19.08;;;1.30;99.90;;;;;;5085146;28;20396;-62
2024/01/07 00:04:34;;;;;;;55.28;20.10;;;1.30;99.90;;;;;;5107905;28;20055;-63
2024/01/07 00:07:02;;;;;;;49.35;20.33;;;1.30;99.90;;;;;;5109177;28;20039;-63
2024/01/07 00:09:29;;;;;;;53.60;19.42;;;1.30;99.90;;;;;;5093181;28;20047;-63
2024/01/07 00:11:57;;;;;;;46.85;20.40;;;1.30;99.90;;;;;;5089867;28;20056;-63
2024/01/07 00:14:25;;;;;;;50.25;20.80;;;1.30;99.90;;;;;;5088812;28;20040;-63
2024/01/07 00:16:52;;;;;;;52.33;22.50;;;1.40;99.90;;;;;;5090689;28;20067;-64
2024/01/07 00:19:20;;;;;;;44.00;19.73;;;1.30;99.90;;;;;;5089920;28;20052;-63
2024/01/07 00:21:49;;;;;;;51.40;21.02;;;1.40;99.90;;;;;;5089674;28;20040;-63
2024/01/07 00:24:17;;;;;;;50.63;20.47;;;1.40;99.90;;;;;;5089677;28;20052;-67
2024/01/07 00:26:45;;;;;;;49.75;18.42;;;1.40;99.90;;;;;;5089362;28;20044;-63
2024/01/07 00:29:12;;;;;;;42.85;17.13;;;1.40;99.90;;;;;;5089914;28;20051;-64
2024/01/07 00:31:40;;;;;;;45.78;18.40;;;1.40;99.90;;;;;;5089961;28;20051;-64
2024/01/07 00:34:08;;;;;;;58.90;19.13;;;1.30;99.90;;;;;;5088642;28;20055;-63
2024/01/07 00:36:36;;;;;;;45.40;18.38;;;1.30;99.90;;;;;;5089722;28;20055;-63
2024/01/07 00:39:04;;;;;;;44.95;18.10;;;1.20;99.90;;;;;;5087225;28;20048;-63
2024/01/07 00:41:31;;;;;;;45.63;17.90;;;1.10;99.90;;;;;;5071136;28;20056;-63
2024/01/07 00:43:59;;;;;;;46.55;17.48;;;1.00;99.90;;;;;;5095548;28;20046;-63
2024/01/07 00:46:27;;;;;;;42.97;15.82;;;0.90;99.90;;;;;;5106115;28;20052;-64
2024/01/07 00:48:54;;;;;;;44.80;16.25;;;0.90;99.90;;;;;;5100198;28;20047;-63
2024/01/07 00:51:22;;;;;;;43.95;16.67;;;0.90;99.90;;;;;;5104780;28;20048;-64
2024/01/07 00:53:50;;;;;;;46.65;17.40;;;0.80;99.90;;;;;;5093683;28;20039;-63
2024/01/07 00:56:17;;;;;;;45.75;18.15;;;0.90;99.90;;;;;;5084153;28;20044;-64
2024/01/07 00:58:45;;;;;;;47.70;19.15;;;0.90;99.90;;;;;;5097213;28;20043;-63
2024/01/07 01:01:13;;;;;;;58.97;19.55;;;1.00;99.90;;;;;;5091660;28;20048;-63
2024/01/07 01:03:40;;;;;;;49.40;18.17;;;1.00;99.90;;;;;;5096065;28;20064;-63
2024/01/07 01:06:08;;;;;;;47.20;18.48;;;1.00;99.90;;;;;;5106087;28;20461;-63
2024/01/07 01:08:36;;;;;;;53.70;18.92;;;1.10;99.90;;;;;;5107429;28;20055;-63
2024/01/07 01:11:04;;;;;;;47.38;19.73;;;1.10;99.90;;;;;;5085133;28;20040;-62
2024/01/07 01:13:31;;;;;;;43.42;18.05;;;1.10;99.90;;;;;;5088990;28;20048;-63
2024/01/07 01:15:59;;;;;;;43.03;18.08;;;1.10;99.90;;;;;;5089041;28;20048;-62
2024/01/07 01:18:27;;;;;;;44.78;17.38;;;1.10;99.90;;;;;;5089973;28;20043;-63
2024/01/07 01:20:56;;;;;;;42.72;16.80;;;1.00;99.90;;;;;;5087386;28;20040;-63
2024/01/07 01:23:23;;;;;;;47.35;18.23;;;1.00;99.90;;;;;;5088019;28;20040;-68
2024/01/07 01:25:51;;;;;;;50.15;19.38;;;0.90;99.90;;;;;;5080564;28;20039;-63
2024/01/07 01:28:19;;;;;;;44.90;18.27;;;0.90;99.90;;;;;;5080549;28;20050;-63
2024/01/07 01:30:47;;;;;;;45.72;17.17;;;0.80;99.90;;;;;;5095233;28;20043;-63
2024/01/07 01:33:14;;;;;;;43.05;16.70;;;0.80;99.90;;;;;;5088276;28;20415;-63
2024/01/07 01:35:43;;;;;;;40.55;17.50;;;0.70;99.90;;;;;;5087520;28;20055;-63
2024/01/07 01:38:11;;;;;;;46.90;18.17;;;0.60;99.90;;;;;;5100307;28;20055;-63
2024/01/07 01:40:39;;;;;;;41.85;16.75;;;0.60;99.90;;;;;;5072507;28;20051;-63
2024/01/07 01:43:06;;;;;;;37.97;16.08;;;0.50;99.90;;;;;;5080735;28;20419;-63
2024/01/07 01:45:34;;;;;;;46.50;17.00;;;0.50;99.90;;;;;;5087526;28;20048;-63
2024/01/07 01:48:02;;;;;;;51.53;17.50;;;0.40;99.90;;;;;;5088073;28;20055;-63
2024/01/07 01:50:30;;;;;;;38.85;15.68;;;0.40;99.90;;;;;;5080265;28;20044;-64
2024/01/07 01:52:57;;;;;;;39.47;15.82;;;0.30;99.90;;;;;;5077695;28;20495;-65
2024/01/07 01:55:25;;;;;;;47.47;15.48;;;0.30;99.90;;;;;;5080277;28;20029;-63
2024/01/07 01:57:54;;;;;;;40.33;15.23;;;0.20;99.90;;;;;;5068828;28;20186;-67
2024/01/07 02:00:22;;;;;;;34.22;15.02;;;0.20;99.90;;;;;;5077001;28;20037;-63
2024/01/07 02:02:50;;;;;;;43.63;15.10;;;0.10;99.90;;;;;;5076805;28;20055;-69
2024/01/07 02:05:19;;;;;;;;;;;0.10;99.90;;;;;;5088023;28;20467;-63
2024/01/07 02:07:48;;;;;;;37.63;14.63;;;0.10;99.90;;;;;;5086760;28;19942;-64
2024/01/07 02:10:16;;;;;;;48.38;15.85;;;0.10;99.90;;;;;;5079129;28;20046;-63
2024/01/07 02:12:43;;;;;;;45.72;15.38;;;0.10;99.90;;;;;;5069280;28;20048;-63
2024/01/07 02:15:11;;;;;;;38.58;16.42;;;0.10;99.90;;;;;;5086817;28;20044;-64
2024/01/07 02:17:39;;;;;;;38.40;14.82;;;0.20;99.90;;;;;;5086475;28;20048;-63
2024/01/07 02:20:08;;;;;;;39.35;15.60;;;0.20;99.90;;;;;;5086978;28;20066;-63
2024/01/07 02:22:35;;;;;;;37.00;15.38;;;0.20;99.90;;;;;;5081053;28;20044;-63
2024/01/07 02:25:04;;;;;;;45.22;15.80;;;0.30;99.90;;;;;;5085626;28;20359;-63
2024/01/07 02:27:32;;;;;;;38.00;16.27;;;0.40;99.90;;;;;;5085967;28;20048;-63
2024/01/07 02:30:00;;;;;;;37.80;14.57;;;0.40;99.90;;;;;;5092721;28;20048;-63
2024/01/07 02:32:32;;;;;;;40.10;15.20;;;0.50;99.90;;;;;;5069260;28;20060;-64
2024/01/07 02:35:00;;;;;;;41.65;15.27;;;0.60;99.90;;;;;;5087154;28;20048;-63
2024/01/07 02:37:28;;;;;;;40.42;15.40;;;0.60;99.90;;;;;;5091099;28;20048;-64
2024/01/07 02:39:56;;;;;;;44.00;13.75;;;0.70;99.90;;;;;;5082267;28;20048;-63
2024/01/07 02:42:28;;;;;;;36.30;14.98;;;0.70;99.90;;;;;;5071085;28;20041;-67
2024/01/07 02:44:57;;;;;;;40.40;15.63;;;0.70;99.90;;;;;;5087750;28;20505;-65
2024/01/07 02:47:24;;;;;;;40.83;14.68;;;0.80;99.90;;;;;;5074363;28;20407;-63
2024/01/07 02:49:52;;;;;;;32.90;14.77;;;0.80;99.90;;;;;;5075693;28;20049;-67
2024/01/07 02:52:20;;;;;;;40.00;14.63;;;0.80;99.90;;;;;;5081296;28;20059;-66
2024/01/07 02:54:47;;;;;;;41.17;14.50;;;0.80;99.90;;;;;;5090700;28;20059;-63
2024/01/07 02:57:15;;;;;;;38.33;14.20;;;0.80;99.90;;;;;;5090991;28;20036;-68
2024/01/07 02:59:42;;;;;;;44.38;14.73;;;0.90;99.90;;;;;;5094764;28;20061;-68
2024/01/07 03:02:10;;;;;;;38.72;15.63;;;0.90;99.90;;;;;;5110158;28;20043;-64
2024/01/07 03:04:37;;;;;;;42.55;14.88;;;1.00;99.90;;;;;;5102268;28;20044;-69
2024/01/07 03:07:05;;;;;;;29.70;13.55;;;1.00;99.90;;;;;;5089520;28;20395;-65
2024/01/07 03:09:33;;;;;;;40.17;14.15;;;1.00;99.90;;;;;;5089574;28;20066;-64
2024/01/07 03:12:00;;;;;;;33.58;14.70;;;1.10;99.90;;;;;;5090747;28;20048;-63
2024/01/07 03:14:28;;;;;;;42.83;14.25;;;1.10;99.90;;;;;;5089706;28;20044;-63
2024/01/07 03:16:55;;;;;;;38.03;14.05;;;1.00;99.90;;;;;;5094057;28;20051;-67
2024/01/07 03:19:23;;;;;;;47.45;15.18;;;1.00;99.90;;;;;;5092691;28;20051;-73
2024/01/07 03:21:52;;;;;;;36.25;14.75;;;1.00;99.90;;;;;;5094156;28;20055;-70
2024/01/07 03:24:20;;;;;;;42.90;15.80;;;1.00;99.90;;;;;;5090843;28;20392;-64
2024/01/07 03:26:47;;;;;;;40.50;16.42;;;1.00;99.90;;;;;;5076235;28;20048;-64
2024/01/07 03:29:15;;;;;;;56.33;17.10;;;1.10;99.90;;;;;;5082748;28;20060;-64
2024/01/07 03:31:42;;;;;;;45.88;17.08;;;1.10;99.90;;;;;;5094459;28;20502;-63
2024/01/07 03:34:10;;;;;;;41.58;16.48;;;1.20;99.90;;;;;;5094260;28;20055;-64
2024/01/07 03:36:38;;;;;;;52.85;17.50;;;1.20;99.90;;;;;;5093987;28;20032;-66
2024/01/07 03:39:06;;;;;;;41.15;16.88;;;1.30;99.90;;;;;;5093673;28;20048;-63
2024/01/07 03:41:34;;;;;;;50.33;15.88;;;1.30;99.90;;;;;;5094056;28;20044;-65
2024/01/07 03:44:02;;;;;;;54.63;18.58;;;1.30;99.90;;;;;;5093031;28;20055;-62
2024/01/07 03:46:29;;;;;;;37.40;16.50;;;1.40;99.90;;;;;;5094048;28;20036;-66
2024/01/07 03:48:57;;;;;;;46.85;16.83;;;1.40;99.90;;;;;;5085153;28;20048;-66
2024/01/07 03:51:24;;;;;;;40.53;16.48;;;1.40;99.90;;;;;;5093785;28;20525;-65
2024/01/07 03:53:52;;;;;;;44.08;16.42;;;1.40;99.90;;;;;;5093547;28;20060;-64
2024/01/07 03:56:20;;;;;;;45.90;17.75;;;1.40;99.90;;;;;;5093433;28;20051;-63
2024/01/07 03:58:47;;;;;;;45.35;15.75;;;1.40;99.90;;;;;;5093854;28;20499;-65
2024/01/07 04:01:18;;;;;;;42.17;16.58;;;1.40;99.90;;;;;;5110647;28;20044;-64
2024/01/07 04:03:46;;;;;;;58.78;17.13;;;1.40;99.90;;;;;;5098499;28;20483;-63
2024/01/07 04:06:14;;;;;;;40.80;16.52;;;1.40;99.90;;;;;;5079879;28;20044;-63
2024/01/07 04:08:42;;;;;;;46.28;15.80;;;1.40;99.90;;;;;;5073292;28;20041;-63
2024/01/07 04:11:09;;;;;;;39.67;15.90;;;1.50;99.90;;;;;;5074393;28;20048;-62
2024/01/07 04:13:37;;;;;;;50.42;16.25;;;1.50;99.90;;;;;;5085309;28;20040;-63
2024/01/07 04:16:05;;;;;;;39.78;15.40;;;1.50;99.90;;;;;;5093588;28;20055;-63
2024/01/07 04:18:33;;;;;;;38.92;14.30;;;1.50;99.90;;;;;;5086079;28;20049;-62
2024/01/07 04:21:01;;;;;;;44.20;15.98;;;1.50;99.90;;;;;;5072766;28;20036;-62
2024/01/07 04:23:28;;;;;;;42.22;14.85;;;1.50;99.90;;;;;;5082657;28;20490;-64
2024/01/07 04:25:56;;;;;;;34.40;14.20;;;1.60;99.90;;;;;;5091547;28;20972;-64
2024/01/07 04:28:23;;;;;;;32.80;11.48;;;1.60;99.90;;;;;;5093096;28;20067;-62
2024/01/07 04:30:51;;;;;;;32.33;11.52;;;1.60;99.90;;;;;;5107446;28;20044;-62
2024/01/07 04:33:21;;;;;;;;;;;1.60;99.90;;;;;;5109660;28;20036;-63
2024/01/07 04:35:48;;;;;;;33.17;10.60;;;1.60;99.90;;;;;;5092766;28;19920;-62
2024/01/07 04:38:16;;;;;;;35.33;10.23;;;1.60;99.90;;;;;;5091691;28;20038;-62
2024/01/07 04:40:43;;;;;;;39.47;10.93;;;1.60;99.90;;;;;;5092467;28;20080;-64
2024/01/07 04:43:11;;;;;;;30.42;11.05;;;1.60;99.90;;;;;;5091208;28;20044;-62
2024/01/07 04:45:39;;;;;;;30.10;11.20;;;1.60;99.90;;;;;;5092279;28;20052;-63
2024/01/07 04:48:07;;;;;;;36.05;11.68;;;1.60;99.90;;;;;;5087485;28;20040;-62
2024/01/07 04:50:34;;;;;;;36.13;11.45;;;1.70;99.90;;;;;;5072464;28;20040;-63
2024/01/07 04:53:02;;;;;;;32.38;12.52;;;1.70;99.90;;;;;;5071182;28;20045;-61
2024/01/07 04:55:30;;;;;;;38.00;12.93;;;1.70;99.90;;;;;;5089131;28;20048;-64
2024/01/07 04:57:58;;;;;;;34.47;11.52;;;1.70;99.90;;;;;;5092725;28;20048;-65
2024/01/07 05:00:25;;;;;;;35.45;12.50;;;1.70;99.90;;;;;;5102273;28;20036;-65
2024/01/07 05:02:53;;;;;;;35.42;11.98;;;1.70;99.90;;;;;;5107574;28;20044;-64
2024/01/07 05:05:21;;;;;;;33.42;11.32;;;1.70;99.90;;;;;;5091922;28;20399;-62
2024/01/07 05:07:48;;;;;;;35.47;12.13;;;1.70;99.90;;;;;;5091425;28;20052;-64
2024/01/07 05:10:16;;;;;;;33.88;11.48;;;1.70;99.90;;;;;;5091918;28;20043;-71
2024/01/07 05:12:44;;;;;;;26.33;10.55;;;1.70;99.90;;;;;;5102741;28;20066;-67
2024/01/07 05:15:11;;;;;;;34.90;11.95;;;1.70;99.90;;;;;;5112712;28;20048;-64
2024/01/07 05:17:39;;;;;;;30.00;10.55;;;1.80;99.90;;;;;;5105279;28;20059;-64
2024/01/07 05:20:08;;;;;;;36.63;12.43;;;1.80;99.90;;;;;;5072023;28;20392;-65
2024/01/07 05:22:36;;;;;;;33.13;11.70;;;1.80;99.90;;;;;;5091665;28;20517;-64
2024/01/07 05:25:04;;;;;;;28.25;11.90;;;1.80;99.90;;;;;;5090305;28;20051;-63
2024/01/07 05:27:32;;;;;;;37.95;12.23;;;1.90;99.90;;;;;;5091012;28;20604;-65
2024/01/07 05:30:00;;;;;;;31.25;11.25;;;2.00;99.90;;;;;;5090959;28;20044;-64
2024/01/07 05:32:27;;;;;;;35.45;12.00;;;1.90;99.90;;;;;;5090849;28;20443;-63
2024/01/07 05:34:55;;;;;;;34.33;12.18;;;1.90;99.90;;;;;;5092118;28;20511;-65
2024/01/07 05:37:23;;;;;;;32.28;11.93;;;2.00;99.90;;;;;;5090761;28;20071;-66
2024/01/07 05:39:50;;;;;;;35.45;13.32;;;1.90;99.90;;;;;;5090696;28;20044;-63
2024/01/07 05:42:18;;;;;;;38.95;13.88;;;1.90;99.90;;;;;;5090683;28;20055;-66
2024/01/07 05:44:46;;;;;;;34.05;12.38;;;1.90;99.90;;;;;;5091010;28;20526;-62
2024/01/07 05:47:14;;;;;;;32.72;12.77;;;1.90;99.90;;;;;;5088206;28;20048;-65
2024/01/07 05:49:41;;;;;;;38.55;13.82;;;2.00;99.90;;;;;;5067758;28;20755;-62
2024/01/07 05:52:09;;;;;;;37.20;13.60;;;2.00;99.90;;;;;;5083742;28;20377;-64
2024/01/07 05:54:37;;;;;;;32.55;13.52;;;2.00;99.90;;;;;;5070178;28;20040;-68
2024/01/07 05:57:05;;;;;;;31.42;13.25;;;1.90;99.90;;;;;;5070978;28;20518;-63
2024/01/07 05:59:33;;;;;;;31.90;13.38;;;1.80;99.90;;;;;;5074120;28;20056;-67
2024/01/07 06:02:00;;;;;;;33.60;12.52;;;1.70;99.90;;;;;;5072287;28;20063;-69
2024/01/07 06:04:28;;;;;;;31.77;12.23;;;1.60;99.90;;;;;;5063838;28;20041;-65
2024/01/07 06:06:56;;;;;;;26.23;12.70;;;1.50;99.90;;;;;;5065368;28;20532;-66
2024/01/07 06:09:24;;;;;;;38.10;13.25;;;1.40;99.90;;;;;;5048046;28;20053;-66
2024/01/07 06:11:52;;;;;;;28.17;11.85;;;1.30;99.90;;;;;;5067550;28;20052;-68
2024/01/07 06:14:21;;;;;;;28.15;10.82;;;1.20;99.90;;;;;;5088610;28;20044;-69
2024/01/07 06:16:49;;;;;;;24.50;10.90;;;1.10;99.90;;;;;;5084302;28;20487;-67
2024/01/07 06:19:20;;;;;;;27.77;11.43;;;1.00;99.90;;;;;;5084413;28;20043;-65
2024/01/07 06:21:48;;;;;;;34.03;11.70;;;1.00;99.90;;;;;;5084437;28;20044;-70
2024/01/07 06:24:16;;;;;;;27.90;12.13;;;0.90;99.90;;;;;;5083046;28;20059;-65
2024/01/07 06:26:43;;;;;;;29.35;11.23;;;0.90;99.90;;;;;;5086580;28;20056;-72
2024/01/07 06:29:11;;;;;;;35.05;12.60;;;0.90;99.90;;;;;;5087978;28;20044;-64
2024/01/07 06:31:45;;;;;;;33.33;13.90;;;0.80;99.90;;;;;;5094923;28;20040;-71
2024/01/07 06:34:13;;;;;;;33.50;11.82;;;0.80;99.90;;;;;;5068203;28;20044;-72
2024/01/07 06:36:42;;;;;;;35.00;12.93;;;0.80;99.90;;;;;;5064677;28;20052;-72
2024/01/07 06:39:10;;;;;;;31.38;11.68;;;0.70;99.90;;;;;;5068111;28;20515;-72
2024/01/07 06:41:38;;;;;;;42.28;14.15;;;0.70;99.90;;;;;;5085865;28;20475;-71
2024/01/07 06:44:05;;;;;;;35.58;12.85;;;0.70;99.90;;;;;;5067385;28;20048;-67
2024/01/07 06:46:34;;;;;;;44.55;13.25;;;0.70;99.90;;;;;;5071449;28;20066;-70
2024/01/07 06:49:02;;;;;;;39.90;14.02;;;0.70;99.90;;;;;;5082653;28;20057;-63
2024/01/07 06:51:30;;;;;;;37.50;12.88;;;0.70;99.90;;;;;;5083546;28;20052;-64
2024/01/07 06:53:57;;;;;;;31.90;11.75;;;0.70;99.90;;;;;;5091519;28;20526;-69
2024/01/07 06:56:25;;;;;;;38.17;11.95;;;0.70;99.90;;;;;;5090453;28;20051;-66
2024/01/07 06:58:55;;;;;;;43.50;13.52;;;0.80;99.90;;;;;;5088239;28;20040;-65
2024/01/07 07:01:23;;;;;;;36.65;13.65;;;0.80;99.90;;;;;;5105916;28;20050;-64
2024/01/07 07:03:51;;;;;;;40.08;15.05;;;0.80;99.90;;;;;;5084414;28;20052;-63
2024/01/07 07:06:19;;;;;;;41.10;13.52;;;0.90;99.90;;;;;;5087765;28;20380;-66
2024/01/07 07:08:47;;;;;;;49.17;15.93;;;0.90;99.90;;;;;;5100442;28;20047;-63
2024/01/07 07:11:15;;;;;;;39.03;14.68;;;1.00;99.90;;;;;;5090732;28;20373;-63
2024/01/07 07:13:43;;;;;;;42.42;15.52;;;1.00;99.90;;;;;;5107632;28;20044;-63
2024/01/07 07:16:11;;;;;;;43.08;15.35;;;1.00;99.90;;;;;;5089812;28;20043;-63
2024/01/07 07:18:40;;;;;;;43.95;16.08;;;1.10;99.90;;;;;;5080116;28;20063;-70
2024/01/07 07:21:08;;;;;;;51.13;16.27;;;1.10;99.90;;;;;;5070977;28;20063;-65
2024/01/07 07:23:35;;;;;;;42.47;14.40;;;1.10;99.90;;;;;;5089933;28;20036;-69
2024/01/07 07:26:03;;;;;;;43.80;16.05;;;1.10;99.90;;;;;;5090533;28;20375;-68
2024/01/07 07:28:31;;;;;;;57.85;16.20;;;1.10;99.90;;;;;;5090777;28;20484;-65
2024/01/07 07:30:58;;;;;;;48.50;14.52;;;1.10;99.90;;;;;;5105032;28;20513;-66
2024/01/07 07:33:26;;;;;;;39.85;14.70;;;1.20;99.90;;;;;;5098116;28;20059;-64
2024/01/07 07:35:54;;;;;;;47.13;14.85;;;1.20;99.90;;;;;;5082127;28;20052;-63
2024/01/07 07:38:21;;;;;;;48.95;15.85;;;1.20;99.90;;;;;;5090001;28;20044;-69
2024/01/07 07:40:52;;;;;;;46.08;15.63;;;1.20;99.90;;;;;;5090964;28;20067;-66
2024/01/07 07:43:20;;;;;;;45.03;15.65;;;1.20;99.90;;;;;;5090793;28;20051;-63
2024/01/07 07:45:48;;;;;;;40.95;15.35;;;1.20;99.90;;;;;;5090566;28;20044;-64
2024/01/07 07:48:16;;;;;;;52.40;17.05;;;1.30;99.90;;;;;;5087521;28;20048;-62
2024/01/07 07:50:44;;;;;;;48.67;16.10;;;1.30;99.90;;;;;;5069700;28;20049;-63
2024/01/07 07:53:12;;;;;;;51.60;16.65;;;1.40;99.90;;;;;;5097000;28;20044;-63
2024/01/07 07:55:40;;;;;;;54.28;16.85;;;1.40;99.90;;;;;;5099816;28;20044;-64
2024/01/07 07:58:08;;;;;;;51.97;15.80;;;1.40;99.90;;;;;;5098338;28;20050;-63
2024/01/07 08:00:36;;;;;;;46.70;15.43;;;1.40;99.90;;;;;;5095778;28;20376;-63
2024/01/07 08:03:04;;;;;;;53.78;16.17;;;1.50;99.90;;;;;;5075180;28;20231;-64
2024/01/07 08:05:32;;;;;;;45.75;15.65;;;1.50;99.90;;;;;;5084616;28;20054;-63
2024/01/07 08:08:00;;;;;;;57.80;17.27;;;1.50;99.90;;;;;;5085879;28;20040;-63
2024/01/07 08:10:28;;;;;;;62.05;18.27;;;1.50;99.90;;;;;;5072872;28;20134;-63
2024/01/07 08:12:56;;;;;;;43.17;15.77;;;1.50;99.90;;;;;;5099949;28;20048;-63
2024/01/07 08:15:25;;;;;;;48.78;15.13;;;1.50;99.90;;;;;;5102615;28;20048;-63
2024/01/07 08:17:53;;;;;;;;;;;1.60;99.90;;;;;;5083278;28;20072;-63
2024/01/07 08:20:21;;;;;;;45.90;16.05;;;1.60;99.90;;;;;;5068792;28;19924;-73
2024/01/07 08:22:48;;;;;;;51.97;15.68;;;1.60;99.90;;;;;;5078155;28;20044;-62
2024/01/07 08:25:17;;;;;;;55.45;17.02;;;1.60;99.90;;;;;;5089835;28;20036;-65
2024/01/07 08:27:45;;;;;;;48.63;16.92;;;1.60;99.90;;;;;;5087694;28;20044;-62
2024/01/07 08:30:13;;;;;;;54.83;17.83;;;1.60;99.90;;;;;;5098875;28;20048;-63
2024/01/07 08:32:42;;;;;;;56.45;16.90;;;1.60;99.90;;;;;;5099684;28;20496;-63
2024/01/07 08:35:09;;;;;;;55.45;17.92;;;1.60;99.90;;;;;;5079506;28;20044;-64
2024/01/07 08:37:37;;;;;;;62.63;18.30;;;1.70;99.90;;;;;;5089683;28;20083;-63
2024/01/07 08:40:05;;;;;;;59.35;19.35;;;1.70;99.90;;;;;;5089525;28;20047;-62
2024/01/07 08:42:36;;;;;;;56.47;16.88;;;1.70;99.90;;;;;;5089790;28;20063;-64
2024/01/07 08:45:04;;;;;;;51.10;17.42;;;1.80;99.90;;;;;;5086711;28;20040;-62
2024/01/07 08:47:35;;;;;;;47.78;15.27;;;1.80;99.90;;;;;;5088796;28;20044;-62
2024/01/07 08:50:09;;;;;;;58.25;16.88;;;1.80;99.90;;;;;;5085991;28;20044;-64
2024/01/07 08:52:37;;;;;;;62.22;17.92;;;1.80;99.90;;;;;;5090416;28;20035;-63
2024/01/07 08:55:07;;;;;;;53.30;17.58;;;1.80;99.90;;;;;;5070770;28;20057;-63
2024/01/07 08:57:35;;;;;;;;;;;1.90;99.90;;;;;;5088532;28;20497;-63
2024/01/07 09:00:04;;;;;;;52.42;16.63;;;1.90;99.90;;;;;;5107306;28;20295;-62
2024/01/07 09:02:32;;;;;;;58.13;17.30;;;1.90;99.90;;;;;;5092040;28;20051;-64
2024/01/07 09:04:59;;;;;;;51.20;17.45;;;1.90;99.90;;;;;;5080267;28;20296;-66
2024/01/07 09:07:27;;;;;;;53.67;17.00;;;2.00;99.90;;;;;;5091050;28;20055;-64
2024/01/07 09:09:59;;;;;;;52.40;17.23;;;2.00;99.90;;;;;;5098053;28;20055;-63
2024/01/07 09:12:29;;;;;;;56.55;18.38;;;2.00;99.90;;;;;;5087967;28;20048;-63
2024/01/07 09:14:58;;;;;;;54.65;17.35;;;2.10;99.90;;;;;;5076891;28;20051;-62
2024/01/07 09:17:25;;;;;;;56.85;18.27;;;2.10;99.90;;;;;;5088041;28;20048;-63
2024/01/07 09:19:53;;;;;;;52.63;16.58;;;2.10;99.90;;;;;;5081020;28;20040;-64
2024/01/07 09:22:21;;;;;;;53.80;17.13;;;2.10;99.90;;;;;;5087182;28;20044;-63
2024/01/07 09:24:49;;;;;;;57.40;16.65;;;2.10;99.90;;;;;;5088812;28;20495;-62
2024/01/07 09:27:19;;;;;;;52.30;16.13;;;2.20;99.90;;;;;;5087210;28;20044;-63
2024/01/07 09:29:47;;;;;;;50.92;17.73;;;2.10;99.90;;;;;;5094050;28;20060;-62
2024/01/07 09:32:14;;;;;;;45.95;16.60;;;2.20;99.90;;;;;;5104706;28;20055;-64
2024/01/07 09:34:43;;;;;;;52.83;17.00;;;2.20;99.90;;;;;;5080116;28;20044;-62
2024/01/07 09:37:11;;;;;;;52.00;17.23;;;2.20;99.90;;;;;;5084006;28;20517;-62
2024/01/07 09:39:42;;;;;;;50.35;16.67;;;2.30;99.90;;;;;;5109221;28;20059;-64
2024/01/07 09:42:14;;;;;;;47.67;16.25;;;2.30;99.90;;;;;;5090060;28;20522;-62
2024/01/07 09:44:42;;;;;;;58.05;18.23;;;2.30;99.90;;;;;;5090908;28;20059;-63
2024/01/07 09:47:14;;;;;;;60.55;20.58;;;2.40;99.90;;;;;;5099428;28;20048;-63
2024/01/07 09:49:43;;;;;;;74.70;21.90;;;2.40;99.90;;;;;;5073801;28;20052;-62
2024/01/07 09:52:12;;;;;;;64.53;22.58;;;2.50;99.90;;;;;;5075798;28;20051;-63
2024/01/07 09:54:40;;;;;;;58.00;20.63;;;2.50;99.90;;;;;;5067220;28;20044;-63
2024/01/07 09:57:08;;;;;;;53.00;20.05;;;2.60;99.90;;;;;;5068136;28;20056;-63
2024/01/07 09:59:36;;;;;;;54.17;19.20;;;2.60;99.90;;;;;;5090482;28;20051;-62
2024/01/07 10:02:04;;;;;;;51.00;18.83;;;2.70;99.90;;;;;;5082800;28;20058;-64
2024/01/07 10:04:32;;;;;;;50.17;19.02;;;2.70;99.90;;;;;;5085605;28;20043;-63
2024/01/07 10:07:00;;;;;;;49.42;18.70;;;2.80;99.90;;;;;;5086968;28;20052;-63
2024/01/07 10:09:30;;;;;;;48.13;19.20;;;2.80;99.90;;;;;;5081296;28;20047;-64
2024/01/07 10:11:57;;;;;;;;;;;2.80;99.90;;;;;;5069968;28;20507;-63
2024/01/07 10:14:26;;;;;;;52.58;19.15;;;2.80;99.90;;;;;;5086614;28;20408;-64
2024/01/07 10:16:55;;;;;;;;;;;2.80;99.90;;;;;;5087960;28;20051;-65
2024/01/07 10:19:23;;;;;;;50.50;19.23;;;2.90;99.90;;;;;;5083211;28;19935;-63
2024/01/07 10:22:04;;;;;;;50.90;18.13;;;2.90;99.90;;;;;;5067940;28;20044;-63
2024/01/07 10:24:40;;;;;;;53.05;18.73;;;2.90;99.90;;;;;;5086737;28;20130;-63
2024/01/07 10:27:09;;;;;;;51.03;19.25;;;2.90;99.90;;;;;;5084159;28;20047;-65
2024/01/07 10:29:37;;;;;;;50.13;19.65;;;2.90;99.90;;;;;;5111778;28;20378;-64
2024/01/07 10:32:05;;;;;;;56.10;21.10;;;3.00;99.90;;;;;;5107917;28;20044;-63
2024/01/07 10:34:35;;;;;;;49.42;19.67;;;3.00;99.90;;;;;;5088125;28;20036;-64
2024/01/07 10:37:08;;;;;;;55.05;20.42;;;3.00;99.90;;;;;;5071663;28;20361;-63
2024/01/07 10:39:36;;;;;;;58.83;20.40;;;3.10;99.90;;;;;;5110942;28;20051;-63
2024/01/07 10:42:04;;;;;;;49.05;20.75;;;3.10;99.90;;;;;;5073299;28;20051;-62
2024/01/07 10:44:33;;;;;;;53.35;20.75;;;3.20;99.90;;;;;;5080236;28;20060;-63
2024/01/07 10:47:09;;;;;;;46.83;19.10;;;3.30;99.90;;;;;;5079019;28;20044;-65
2024/01/07 10:49:42;;;;;;;50.20;19.17;;;3.30;99.90;;;;;;5086809;28;20044;-66
2024/01/07 10:52:11;;;;;;;45.67;20.02;;;3.40;99.90;;;;;;5089100;28;20056;-64
2024/01/07 10:54:42;;;;;;;44.17;19.73;;;3.40;99.90;;;;;;5091185;28;20040;-63
2024/01/07 10:57:44;;;;;;;36.22;17.70;;;3.50;99.90;;;;;;5090640;28;20048;-65
2024/01/07 11:00:19;;;;;;;39.60;16.13;;;3.60;99.90;;;;;;5086192;28;20048;-64
2024/01/07 11:03:06;;;;;;;40.90;16.95;;;3.60;99.90;;;;;;5081573;28;20542;-64
2024/01/07 11:05:53;;;;;;;32.08;15.25;;;3.70;99.90;;;;;;5082704;28;20047;-63
2024/01/07 11:08:36;;;;;;;26.20;12.00;;;3.70;99.90;;;;;;5095644;28;20858;-62
2024/01/07 11:11:09;;;;;;;24.77;11.30;;;3.80;99.90;;;;;;5073846;28;20391;-65
2024/01/07 11:13:38;;;;;;;26.17;11.88;;;3.80;99.90;;;;;;5072457;28;20058;-64
2024/01/07 11:16:10;;;;;;;28.42;12.20;;;3.90;99.90;;;;;;5085622;28;20040;-65
2024/01/07 11:19:05;;;;;;;29.30;10.77;;;4.00;99.90;;;;;;5072317;28;20041;-64
2024/01/07 11:21:36;;;;;;;26.13;12.57;;;4.10;99.90;;;;;;5069913;28;20048;-64
2024/01/07 11:24:04;;;;;;;30.67;12.68;;;4.10;99.90;;;;;;5087687;28;20044;-64
2024/01/07 11:26:32;;;;;;;21.58;11.07;;;4.20;99.90;;;;;;5079622;28;20398;-68
2024/01/07 11:29:00;;;;;;;20.63;9.35;;;4.20;99.90;;;;;;5084966;28;20044;-63
2024/01/07 11:31:43;;;;;;;19.40;9.00;;;4.30;99.90;;;;;;5087598;28;20045;-66
2024/01/07 11:34:46;;;;;;;16.98;8.50;;;4.40;99.90;;;;;;5090044;28;20040;-63
2024/01/07 11:37:14;;;;;;;17.45;9.48;;;4.40;99.90;;;;;;5084892;28;20423;-64
2024/01/07 11:39:45;;;;;;;15.80;8.27;;;4.50;99.90;;;;;;5092656;28;20040;-64
2024/01/07 11:42:13;;;;;;;23.20;11.70;;;4.50;99.90;;;;;;5090633;28;21427;-68
2024/01/07 11:44:48;;;;;;;22.75;10.30;;;4.50;99.90;;;;;;5089873;28;20040;-64
2024/01/07 11:47:20;;;;;;;18.60;8.02;;;4.50;99.90;;;;;;5087985;28;20047;-66
2024/01/07 11:49:51;;;;;;;10.05;6.00;;;4.50;99.90;;;;;;5071226;28;20078;-71
2024/01/07 11:52:20;;;;;;;13.40;5.43;;;4.60;99.90;;;;;;5075271;28;20052;-65
2024/01/07 11:54:49;;;;;;;12.65;6.13;;;4.60;99.90;;;;;;5076905;28;20043;-64
2024/01/07 11:57:17;;;;;;;10.13;6.05;;;4.60;99.90;;;;;;5090549;28;20052;-63
2024/01/07 11:59:44;;;;;;;26.33;11.45;;;4.60;99.90;;;;;;5078902;28;20044;-64
2024/01/07 12:02:12;;;;;;;14.95;6.18;;;4.60;99.90;;;;;;5076580;28;20055;-65
2024/01/07 12:04:40;;;;;;;11.93;5.32;;;4.60;99.90;;;;;;5107240;28;20055;-67
2024/01/07 12:07:14;;;;;;;9.38;4.25;;;4.60;99.90;;;;;;5084615;28;20051;-64
2024/01/07 12:09:43;;;;;;;7.47;3.97;;;4.60;99.90;;;;;;5071621;28;20381;-65
2024/01/07 12:12:11;;;;;;;5.57;3.72;;;4.70;99.90;;;;;;5070834;28;20063;-66
2024/01/07 12:14:40;;;;;;;8.10;3.67;;;4.60;99.90;;;;;;5107355;28;20051;-64
2024/01/07 12:17:10;;;;;;;8.70;4.03;;;4.60;99.90;;;;;;5084756;28;20082;-65
2024/01/07 12:19:41;;;;;;;12.25;4.63;;;4.60;99.90;;;;;;5085402;28;20052;-64
2024/01/07 12:22:10;;;;;;;10.98;5.10;;;4.60;99.90;;;;;;5072825;28;20048;-65
2024/01/07 12:24:38;;;;;;;11.65;6.15;;;4.60;99.90;;;;;;5086279;28;20470;-63
2024/01/07 12:27:06;;;;;;;12.35;5.65;;;4.70;99.90;;;;;;5083371;28;20503;-65
2024/01/07 12:29:34;;;;;;;9.85;5.93;;;4.70;99.90;;;;;;5081095;28;20044;-64
2024/01/07 12:32:02;;;;;;;10.85;5.97;;;4.80;99.90;;;;;;5080885;28;20052;-63
2024/01/07 12:34:31;;;;;;;11.98;5.80;;;4.80;99.90;;;;;;5077782;28;20052;-63
2024/01/07 12:36:59;;;;;;;13.85;6.80;;;4.80;99.90;;;;;;5058313;28;20052;-65
2024/01/07 12:39:27;;;;;;;11.75;5.70;;;4.80;99.90;;;;;;5082612;28;20048;-66
2024/01/07 12:41:56;;;;;;;8.40;4.88;;;4.80;99.90;;;;;;5085057;28;20044;-64
2024/01/07 12:44:27;;;;;;;11.23;4.90;;;4.80;99.90;;;;;;5066981;28;20396;-64
2024/01/07 12:46:55;;;;;;;12.98;5.30;;;4.80;99.90;;;;;;5071464;28;20514;-64
2024/01/07 12:49:24;;;;;;;11.55;4.97;;;4.80;99.90;;;;;;5078982;28;20040;-65